sensor_id;sensor_type;location;lat;lon;timestamp;temperature;humidity
3944;DHT22;1986;52.546;13.428;2023-10-09T00:00:14;11.70;99.90
3944;DHT22;1986;52.546;13.428;2023-10-09T00:02:57;11.60;99.90
3944;DHT22;1986;52.546;13.428;2023-10-09T00:05:26;11.70;99.90
3944;DHT22;1986;52.546;13.428;2023-10-09T00:08:05;11.60;99.90
3944;DHT22;1986;52.546;13.428;2023-10-09T00:10:34;11.60;99.90
3944;DHT22;1986;52.546;13.428;2023-10-09T00:13:11;11.50;99.90
3944;DHT22;1986;52.546;13.428;2023-10-09T00:15:38;11.50;99.90
3944;DHT22;1986;52.546;13.428;2023-10-09T00:18:08;11.40;99.90
3944;DHT22;1986;52.546;13.428;2023-10-09T00:20:37;11.40;99.90
3944;DHT22;1986;52.546;13.428;2023-10-09T00:23:08;11.40;99.90
3944;DHT22;1986;52.546;13.428;2023-10-09T00:25:48;11.30;99.90
3944;DHT22;1986;52.546;13.428;2023-10-09T00:28:33;11.30;99.90
3944;DHT22;1986;52.546;13.428;2023-10-09T00:31:02;11.20;99.90
3944;DHT22;1986;52.546;13.428;2023-10-09T00:33:33;11.20;99.90
3944;DHT22;1986;52.546;13.428;2023-10-09T00:36:03;11.20;99.90
3944;DHT22;1986;52.546;13.428;2023-10-09T00:38:37;11.10;99.90
3944;DHT22;1986;52.546;13.428;2023-10-09T00:41:10;11.10;99.90
3944;DHT22;1986;52.546;13.428;2023-10-09T00:43:45;11.10;99.90
3944;DHT22;1986;52.546;13.428;2023-10-09T00:46:16;11.00;99.90
3944;DHT22;1986;52.546;13.428;2023-10-09T00:48:53;11.00;99.90
3944;DHT22;1986;52.546;13.428;2023-10-09T00:51:22;11.00;99.90
3944;DHT22;1986;52.546;13.428;2023-10-09T00:53:51;10.90;99.90
3944;DHT22;1986;52.546;13.428;2023-10-09T00:56:22;10.90;99.90
3944;DHT22;1986;52.546;13.428;2023-10-09T00:59:04;11.00;99.90
3944;DHT22;1986;52.546;13.428;2023-10-09T01:01:43;10.90;99.90
3944;DHT22;1986;52.546;13.428;2023-10-09T01:04:23;10.90;99.90
3944;DHT22;1986;52.546;13.428;2023-10-09T01:06:52;10.80;99.90
3944;DHT22;1986;52.546;13.428;2023-10-09T01:09:33;10.80;99.90
3944;DHT22;1986;52.546;13.428;2023-10-09T01:12:04;10.80;99.90
3944;DHT22;1986;52.546;13.428;2023-10-09T01:14:31;10.80;99.90
3944;DHT22;1986;52.546;13.428;2023-10-09T01:17:02;10.70;99.90
3944;DHT22;1986;52.546;13.428;2023-10-09T01:19:35;10.70;99.90
3944;DHT22;1986;52.546;13.428;2023-10-09T01:22:02;10.70;99.90
3944;DHT22;1986;52.546;13.428;2023-10-09T01:24:39;10.60;99.90
3944;DHT22;1986;52.546;13.428;2023-10-09T01:27:06;10.60;99.90
3944;DHT22;1986;52.546;13.428;2023-10-09T01:29:41;10.60;99.90
3944;DHT22;1986;52.546;13.428;2023-10-09T01:32:10;10.60;99.90
3944;DHT22;1986;52.546;13.428;2023-10-09T01:34:42;10.70;99.90
3944;DHT22;1986;52.546;13.428;2023-10-09T01:37:11;10.60;99.90
3944;DHT22;1986;52.546;13.428;2023-10-09T01:39:46;10.60;99.90
3944;DHT22;1986;52.546;13.428;2023-10-09T01:42:15;10.60;99.90
3944;DHT22;1986;52.546;13.428;2023-10-09T01:45:00;10.60;99.90
3944;DHT22;1986;52.546;13.428;2023-10-09T01:47:39;10.50;99.90
3944;DHT22;1986;52.546;13.428;2023-10-09T01:50:08;10.60;99.90
3944;DHT22;1986;52.546;13.428;2023-10-09T01:52:39;10.50;99.90
3944;DHT22;1986;52.546;13.428;2023-10-09T01:55:10;10.50;99.90
3944;DHT22;1986;52.546;13.428;2023-10-09T01:57:53;10.50;99.90
3944;DHT22;1986;52.546;13.428;2023-10-09T02:00:20;10.50;99.90
3944;DHT22;1986;52.546;13.428;2023-10-09T02:02:55;10.50;99.90
3944;DHT22;1986;52.546;13.428;2023-10-09T02:05:25;10.60;99.90
3944;DHT22;1986;52.546;13.428;2023-10-09T02:07:55;10.60;99.90
3944;DHT22;1986;52.546;13.428;2023-10-09T02:10:26;10.60;99.90
3944;DHT22;1986;52.546;13.428;2023-10-09T02:12:57;10.70;99.90
3944;DHT22;1986;52.546;13.428;2023-10-09T02:15:25;10.70;99.90
3944;DHT22;1986;52.546;13.428;2023-10-09T02:18:20;10.70;99.90
3944;DHT22;1986;52.546;13.428;2023-10-09T02:21:06;10.70;99.90
3944;DHT22;1986;52.546;13.428;2023-10-09T02:23:43;10.70;99.90
3944;DHT22;1986;52.546;13.428;2023-10-09T02:26:23;10.80;99.90
3944;DHT22;1986;52.546;13.428;2023-10-09T02:28:54;10.80;99.90
3944;DHT22;1986;52.546;13.428;2023-10-09T02:31:24;10.80;99.90
3944;DHT22;1986;52.546;13.428;2023-10-09T02:33:55;10.90;99.90
3944;DHT22;1986;52.546;13.428;2023-10-09T02:36:22;10.90;99.90
3944;DHT22;1986;52.546;13.428;2023-10-09T02:38:50;10.90;99.90
3944;DHT22;1986;52.546;13.428;2023-10-09T02:41:22;10.90;99.90
3944;DHT22;1986;52.546;13.428;2023-10-09T02:43:54;10.90;99.90
3944;DHT22;1986;52.546;13.428;2023-10-09T02:46:24;10.90;99.90
3944;DHT22;1986;52.546;13.428;2023-10-09T02:48:58;10.90;99.90
3944;DHT22;1986;52.546;13.428;2023-10-09T02:51:30;11.00;99.90
3944;DHT22;1986;52.546;13.428;2023-10-09T02:54:02;10.90;99.90
3944;DHT22;1986;52.546;13.428;2023-10-09T02:57:00;10.90;99.90
3944;DHT22;1986;52.546;13.428;2023-10-09T02:59:33;10.90;99.90
3944;DHT22;1986;52.546;13.428;2023-10-09T03:02:03;10.90;99.90
3944;DHT22;1986;52.546;13.428;2023-10-09T03:04:31;10.90;99.90
3944;DHT22;1986;52.546;13.428;2023-10-09T03:06:59;10.90;99.90
3944;DHT22;1986;52.546;13.428;2023-10-09T03:09:27;11.00;99.90
3944;DHT22;1986;52.546;13.428;2023-10-09T03:11:56;11.00;99.90
3944;DHT22;1986;52.546;13.428;2023-10-09T03:14:28;10.90;99.90
3944;DHT22;1986;52.546;13.428;2023-10-09T03:17:01;11.00;99.90
3944;DHT22;1986;52.546;13.428;2023-10-09T03:19:31;11.10;99.90
3944;DHT22;1986;52.546;13.428;2023-10-09T03:22:09;11.00;99.90
3944;DHT22;1986;52.546;13.428;2023-10-09T03:24:37;11.10;99.90
3944;DHT22;1986;52.546;13.428;2023-10-09T03:27:04;11.10;99.90
3944;DHT22;1986;52.546;13.428;2023-10-09T03:29:33;11.10;99.90
3944;DHT22;1986;52.546;13.428;2023-10-09T03:32:00;11.20;99.90
3944;DHT22;1986;52.546;13.428;2023-10-09T03:34:27;11.20;99.90
3944;DHT22;1986;52.546;13.428;2023-10-09T03:36:58;11.20;99.90
3944;DHT22;1986;52.546;13.428;2023-10-09T03:39:36;11.20;99.90
3944;DHT22;1986;52.546;13.428;2023-10-09T03:42:06;11.20;99.90
3944;DHT22;1986;52.546;13.428;2023-10-09T03:44:44;11.30;99.90
3944;DHT22;1986;52.546;13.428;2023-10-09T03:47:18;11.40;99.90
3944;DHT22;1986;52.546;13.428;2023-10-09T03:49:48;11.30;99.90
3944;DHT22;1986;52.546;13.428;2023-10-09T03:52:18;11.40;99.90
3944;DHT22;1986;52.546;13.428;2023-10-09T03:54:51;11.50;99.90
3944;DHT22;1986;52.546;13.428;2023-10-09T03:57:18;11.40;99.90
3944;DHT22;1986;52.546;13.428;2023-10-09T03:59:47;11.50;99.90
3944;DHT22;1986;52.546;13.428;2023-10-09T04:02:17;11.50;99.90
3944;DHT22;1986;52.546;13.428;2023-10-09T04:04:44;11.50;99.90
3944;DHT22;1986;52.546;13.428;2023-10-09T04:07:14;11.60;99.90
3944;DHT22;1986;52.546;13.428;2023-10-09T04:09:44;11.70;99.90
3944;DHT22;1986;52.546;13.428;2023-10-09T04:12:18;11.60;99.90
3944;DHT22;1986;52.546;13.428;2023-10-09T04:14:52;11.60;99.90
3944;DHT22;1986;52.546;13.428;2023-10-09T04:17:23;11.70;99.90
3944;DHT22;1986;52.546;13.428;2023-10-09T04:20:09;11.80;99.90
3944;DHT22;1986;52.546;13.428;2023-10-09T04:22:55;11.70;99.90
3944;DHT22;1986;52.546;13.428;2023-10-09T04:25:32;11.70;99.90
3944;DHT22;1986;52.546;13.428;2023-10-09T04:28:09;11.80;99.90
3944;DHT22;1986;52.546;13.428;2023-10-09T04:30:39;11.80;99.90
3944;DHT22;1986;52.546;13.428;2023-10-09T04:33:10;11.90;99.90
3944;DHT22;1986;52.546;13.428;2023-10-09T04:35:54;11.90;99.90
3944;DHT22;1986;52.546;13.428;2023-10-09T04:38:39;12.00;99.90
3944;DHT22;1986;52.546;13.428;2023-10-09T04:41:21;12.00;99.90
3944;DHT22;1986;52.546;13.428;2023-10-09T04:43:58;12.10;99.90
3944;DHT22;1986;52.546;13.428;2023-10-09T04:46:45;12.10;99.90
3944;DHT22;1986;52.546;13.428;2023-10-09T04:49:32;12.10;99.90
3944;DHT22;1986;52.546;13.428;2023-10-09T04:52:15;12.00;99.90
3944;DHT22;1986;52.546;13.428;2023-10-09T04:55:09;12.10;99.90
3944;DHT22;1986;52.546;13.428;2023-10-09T04:57:48;12.20;99.90
3944;DHT22;1986;52.546;13.428;2023-10-09T05:00:28;12.20;99.90
3944;DHT22;1986;52.546;13.428;2023-10-09T05:03:10;12.20;99.90
3944;DHT22;1986;52.546;13.428;2023-10-09T05:05:55;12.10;99.90
3944;DHT22;1986;52.546;13.428;2023-10-09T05:08:46;12.20;99.90
3944;DHT22;1986;52.546;13.428;2023-10-09T05:11:14;12.20;99.90
3944;DHT22;1986;52.546;13.428;2023-10-09T05:13:57;12.20;99.90
3944;DHT22;1986;52.546;13.428;2023-10-09T05:16:53;12.20;99.90
3944;DHT22;1986;52.546;13.428;2023-10-09T05:19:37;12.10;99.90
3944;DHT22;1986;52.546;13.428;2023-10-09T05:22:41;12.20;99.90
3944;DHT22;1986;52.546;13.428;2023-10-09T05:25:23;12.10;99.90
3944;DHT22;1986;52.546;13.428;2023-10-09T05:28:17;12.20;99.90
3944;DHT22;1986;52.546;13.428;2023-10-09T05:34:24;12.30;99.90
3944;DHT22;1986;52.546;13.428;2023-10-09T05:37:30;12.30;99.90
3944;DHT22;1986;52.546;13.428;2023-10-09T05:40:00;12.30;99.90
3944;DHT22;1986;52.546;13.428;2023-10-09T05:42:48;12.40;99.90
3944;DHT22;1986;52.546;13.428;2023-10-09T05:45:26;12.40;99.90
3944;DHT22;1986;52.546;13.428;2023-10-09T05:48:11;12.50;99.90
3944;DHT22;1986;52.546;13.428;2023-10-09T05:50:57;12.50;99.90
3944;DHT22;1986;52.546;13.428;2023-10-09T05:53:39;12.50;99.90
3944;DHT22;1986;52.546;13.428;2023-10-09T05:56:29;12.50;99.90
3944;DHT22;1986;52.546;13.428;2023-10-09T05:59:14;12.30;99.90
3944;DHT22;1986;52.546;13.428;2023-10-09T06:02:00;12.40;99.90
3944;DHT22;1986;52.546;13.428;2023-10-09T06:04:45;12.40;99.90
3944;DHT22;1986;52.546;13.428;2023-10-09T06:07:22;12.20;99.90
3944;DHT22;1986;52.546;13.428;2023-10-09T06:10:13;12.30;99.90
3944;DHT22;1986;52.546;13.428;2023-10-09T06:12:54;12.40;99.90
3944;DHT22;1986;52.546;13.428;2023-10-09T06:15:36;12.40;99.90
3944;DHT22;1986;52.546;13.428;2023-10-09T06:18:27;12.30;99.90
3944;DHT22;1986;52.546;13.428;2023-10-09T06:20:58;12.20;99.90
3944;DHT22;1986;52.546;13.428;2023-10-09T06:23:58;12.20;99.90
3944;DHT22;1986;52.546;13.428;2023-10-09T06:26:42;12.30;99.90
3944;DHT22;1986;52.546;13.428;2023-10-09T06:29:33;12.40;99.90
3944;DHT22;1986;52.546;13.428;2023-10-09T06:32:04;12.30;99.90
3944;DHT22;1986;52.546;13.428;2023-10-09T06:35:02;12.50;99.90
3944;DHT22;1986;52.546;13.428;2023-10-09T06:37:42;12.50;99.90
3944;DHT22;1986;52.546;13.428;2023-10-09T06:40:31;12.70;99.90
3944;DHT22;1986;52.546;13.428;2023-10-09T06:43:24;12.70;99.90
3944;DHT22;1986;52.546;13.428;2023-10-09T06:46:03;12.60;99.90
3944;DHT22;1986;52.546;13.428;2023-10-09T06:48:48;12.70;99.90
3944;DHT22;1986;52.546;13.428;2023-10-09T06:51:41;12.70;99.90
3944;DHT22;1986;52.546;13.428;2023-10-09T06:54:09;12.80;99.90
3944;DHT22;1986;52.546;13.428;2023-10-09T06:56:43;12.80;99.90
3944;DHT22;1986;52.546;13.428;2023-10-09T06:59:28;12.90;99.90
3944;DHT22;1986;52.546;13.428;2023-10-09T07:02:08;12.90;99.90
3944;DHT22;1986;52.546;13.428;2023-10-09T07:04:52;12.90;99.90
3944;DHT22;1986;52.546;13.428;2023-10-09T07:07:24;13.00;99.90
3944;DHT22;1986;52.546;13.428;2023-10-09T07:09:56;12.90;99.90
3944;DHT22;1986;52.546;13.428;2023-10-09T07:12:49;12.90;99.90
3944;DHT22;1986;52.546;13.428;2023-10-09T07:15:23;13.00;99.90
3944;DHT22;1986;52.546;13.428;2023-10-09T07:18:08;13.00;99.90
3944;DHT22;1986;52.546;13.428;2023-10-09T07:21:15;13.10;99.90
3944;DHT22;1986;52.546;13.428;2023-10-09T07:23:57;13.10;99.90
3944;DHT22;1986;52.546;13.428;2023-10-09T07:26:24;13.10;99.90
3944;DHT22;1986;52.546;13.428;2023-10-09T07:29:08;13.10;99.90
3944;DHT22;1986;52.546;13.428;2023-10-09T07:32:01;13.20;99.90
3944;DHT22;1986;52.546;13.428;2023-10-09T07:34:49;13.20;99.90
3944;DHT22;1986;52.546;13.428;2023-10-09T07:37:28;13.10;99.90
3944;DHT22;1986;52.546;13.428;2023-10-09T07:39:56;13.00;99.90
3944;DHT22;1986;52.546;13.428;2023-10-09T07:42:32;13.10;99.90
3944;DHT22;1986;52.546;13.428;2023-10-09T07:45:14;13.00;99.90
3944;DHT22;1986;52.546;13.428;2023-10-09T07:47:55;13.00;99.90
3944;DHT22;1986;52.546;13.428;2023-10-09T07:50:36;13.10;99.90
3944;DHT22;1986;52.546;13.428;2023-10-09T07:53:16;13.10;99.90
3944;DHT22;1986;52.546;13.428;2023-10-09T07:55:52;13.20;99.90
3944;DHT22;1986;52.546;13.428;2023-10-09T07:58:25;13.20;99.90
3944;DHT22;1986;52.546;13.428;2023-10-09T08:00:57;13.10;99.90
3944;DHT22;1986;52.546;13.428;2023-10-09T08:03:41;13.10;99.90
3944;DHT22;1986;52.546;13.428;2023-10-09T08:06:11;13.30;99.90
3944;DHT22;1986;52.546;13.428;2023-10-09T08:09:00;13.00;99.90
3944;DHT22;1986;52.546;13.428;2023-10-09T08:12:05;13.00;99.90
3944;DHT22;1986;52.546;13.428;2023-10-09T08:14:48;13.10;99.90
3944;DHT22;1986;52.546;13.428;2023-10-09T08:17:26;13.20;99.90
3944;DHT22;1986;52.546;13.428;2023-10-09T08:19:54;13.10;99.90
3944;DHT22;1986;52.546;13.428;2023-10-09T08:22:27;13.10;99.90
3944;DHT22;1986;52.546;13.428;2023-10-09T08:25:10;13.10;99.90
3944;DHT22;1986;52.546;13.428;2023-10-09T08:27:54;13.10;99.90
3944;DHT22;1986;52.546;13.428;2023-10-09T08:30:25;13.00;99.90
3944;DHT22;1986;52.546;13.428;2023-10-09T08:33:09;12.90;99.90
3944;DHT22;1986;52.546;13.428;2023-10-09T08:35:51;12.90;99.90
3944;DHT22;1986;52.546;13.428;2023-10-09T08:38:21;13.00;99.90
3944;DHT22;1986;52.546;13.428;2023-10-09T08:40:50;12.90;99.90
3944;DHT22;1986;52.546;13.428;2023-10-09T08:43:21;13.00;99.90
3944;DHT22;1986;52.546;13.428;2023-10-09T08:45:53;13.00;99.90
3944;DHT22;1986;52.546;13.428;2023-10-09T08:48:29;13.00;99.90
3944;DHT22;1986;52.546;13.428;2023-10-09T08:50:56;13.10;99.90
3944;DHT22;1986;52.546;13.428;2023-10-09T08:53:25;13.10;99.90
3944;DHT22;1986;52.546;13.428;2023-10-09T08:55:53;13.00;99.90
3944;DHT22;1986;52.546;13.428;2023-10-09T08:58:24;13.00;99.90
3944;DHT22;1986;52.546;13.428;2023-10-09T09:00:56;12.90;99.90
3944;DHT22;1986;52.546;13.428;2023-10-09T09:03:43;13.10;99.90
3944;DHT22;1986;52.546;13.428;2023-10-09T09:06:12;12.90;99.90
3944;DHT22;1986;52.546;13.428;2023-10-09T09:08:45;12.80;99.90
3944;DHT22;1986;52.546;13.428;2023-10-09T09:11:15;12.90;99.90
3944;DHT22;1986;52.546;13.428;2023-10-09T09:13:44;12.90;99.90
3944;DHT22;1986;52.546;13.428;2023-10-09T09:16:16;12.90;99.90
3944;DHT22;1986;52.546;13.428;2023-10-09T09:18:52;13.00;99.90
3944;DHT22;1986;52.546;13.428;2023-10-09T09:21:27;13.00;99.90
3944;DHT22;1986;52.546;13.428;2023-10-09T09:23:56;13.20;99.90
3944;DHT22;1986;52.546;13.428;2023-10-09T09:26:36;13.20;99.90
3944;DHT22;1986;52.546;13.428;2023-10-09T09:29:04;13.00;99.90
3944;DHT22;1986;52.546;13.428;2023-10-09T09:31:33;13.10;99.90
3944;DHT22;1986;52.546;13.428;2023-10-09T09:34:07;13.10;99.90
3944;DHT22;1986;52.546;13.428;2023-10-09T09:36:55;13.20;99.90
3944;DHT22;1986;52.546;13.428;2023-10-09T09:39:24;13.20;99.90
3944;DHT22;1986;52.546;13.428;2023-10-09T09:41:55;13.20;99.90
3944;DHT22;1986;52.546;13.428;2023-10-09T09:44:33;13.30;99.90
3944;DHT22;1986;52.546;13.428;2023-10-09T09:47:10;13.30;99.90
3944;DHT22;1986;52.546;13.428;2023-10-09T09:49:51;13.30;99.90
3944;DHT22;1986;52.546;13.428;2023-10-09T09:52:26;13.40;99.90
3944;DHT22;1986;52.546;13.428;2023-10-09T09:54:55;13.40;99.90
3944;DHT22;1986;52.546;13.428;2023-10-09T09:57:26;13.40;99.90
3944;DHT22;1986;52.546;13.428;2023-10-09T09:59:54;13.50;99.90
3944;DHT22;1986;52.546;13.428;2023-10-09T10:02:30;13.40;99.90
3944;DHT22;1986;52.546;13.428;2023-10-09T10:05:04;13.30;99.90
3944;DHT22;1986;52.546;13.428;2023-10-09T10:07:34;13.40;99.90
3944;DHT22;1986;52.546;13.428;2023-10-09T10:10:34;13.50;99.90
3944;DHT22;1986;52.546;13.428;2023-10-09T10:13:03;13.30;99.90
3944;DHT22;1986;52.546;13.428;2023-10-09T10:15:59;13.20;99.90
3944;DHT22;1986;52.546;13.428;2023-10-09T10:18:31;13.10;99.90
3944;DHT22;1986;52.546;13.428;2023-10-09T10:21:12;13.20;99.90
3944;DHT22;1986;52.546;13.428;2023-10-09T10:23:44;13.20;99.90
3944;DHT22;1986;52.546;13.428;2023-10-09T10:26:17;13.30;99.90
3944;DHT22;1986;52.546;13.428;2023-10-09T10:29:15;13.20;99.90
3944;DHT22;1986;52.546;13.428;2023-10-09T10:31:56;13.20;99.90
3944;DHT22;1986;52.546;13.428;2023-10-09T10:34:26;13.20;99.90
3944;DHT22;1986;52.546;13.428;2023-10-09T10:36:55;13.30;99.90
3944;DHT22;1986;52.546;13.428;2023-10-09T10:39:25;13.50;99.90
3944;DHT22;1986;52.546;13.428;2023-10-09T10:42:14;13.30;99.90
3944;DHT22;1986;52.546;13.428;2023-10-09T10:44:59;13.50;99.90
3944;DHT22;1986;52.546;13.428;2023-10-09T10:47:28;13.50;99.90
3944;DHT22;1986;52.546;13.428;2023-10-09T10:50:01;13.60;99.90
3944;DHT22;1986;52.546;13.428;2023-10-09T10:53:09;13.70;99.90
3944;DHT22;1986;52.546;13.428;2023-10-09T10:55:39;13.60;99.90
3944;DHT22;1986;52.546;13.428;2023-10-09T10:58:18;13.50;99.90
3944;DHT22;1986;52.546;13.428;2023-10-09T11:00:54;13.50;99.90
3944;DHT22;1986;52.546;13.428;2023-10-09T11:03:38;13.50;99.90
3944;DHT22;1986;52.546;13.428;2023-10-09T11:06:25;13.50;99.90
3944;DHT22;1986;52.546;13.428;2023-10-09T11:09:03;13.50;99.90
3944;DHT22;1986;52.546;13.428;2023-10-09T11:11:49;13.70;99.90
3944;DHT22;1986;52.546;13.428;2023-10-09T11:14:21;13.60;99.90
3944;DHT22;1986;52.546;13.428;2023-10-09T11:16:49;13.80;99.90
3944;DHT22;1986;52.546;13.428;2023-10-09T11:19:23;13.70;99.90
3944;DHT22;1986;52.546;13.428;2023-10-09T11:22:00;13.60;99.90
3944;DHT22;1986;52.546;13.428;2023-10-09T11:24:48;13.90;99.90
3944;DHT22;1986;52.546;13.428;2023-10-09T11:27:31;13.70;99.90
3944;DHT22;1986;52.546;13.428;2023-10-09T11:30:06;13.60;99.90
3944;DHT22;1986;52.546;13.428;2023-10-09T11:32:47;13.80;99.90
3944;DHT22;1986;52.546;13.428;2023-10-09T11:35:19;13.80;99.90
3944;DHT22;1986;52.546;13.428;2023-10-09T11:37:56;13.90;99.90
3944;DHT22;1986;52.546;13.428;2023-10-09T11:40:30;13.90;99.90
3944;DHT22;1986;52.546;13.428;2023-10-09T11:43:08;13.70;99.90
3944;DHT22;1986;52.546;13.428;2023-10-09T11:45:39;13.80;99.90
3944;DHT22;1986;52.546;13.428;2023-10-09T11:48:21;13.70;99.90
3944;DHT22;1986;52.546;13.428;2023-10-09T11:50:52;13.80;99.90
3944;DHT22;1986;52.546;13.428;2023-10-09T11:53:21;13.90;99.90
3944;DHT22;1986;52.546;13.428;2023-10-09T11:56:06;14.20;99.90
3944;DHT22;1986;52.546;13.428;2023-10-09T11:58:39;14.00;99.90
3944;DHT22;1986;52.546;13.428;2023-10-09T12:01:11;13.90;99.90
3944;DHT22;1986;52.546;13.428;2023-10-09T12:03:43;13.60;99.90
3944;DHT22;1986;52.546;13.428;2023-10-09T12:06:15;13.70;99.90
3944;DHT22;1986;52.546;13.428;2023-10-09T12:08:45;13.90;99.90
3944;DHT22;1986;52.546;13.428;2023-10-09T12:11:16;14.00;99.90
3944;DHT22;1986;52.546;13.428;2023-10-09T12:13:48;14.10;99.90
3944;DHT22;1986;52.546;13.428;2023-10-09T12:16:25;14.10;99.90
3944;DHT22;1986;52.546;13.428;2023-10-09T12:18:53;14.10;99.90
3944;DHT22;1986;52.546;13.428;2023-10-09T12:21:20;14.10;99.90
3944;DHT22;1986;52.546;13.428;2023-10-09T12:23:50;13.90;99.90
3944;DHT22;1986;52.546;13.428;2023-10-09T12:26:20;14.00;99.90
3944;DHT22;1986;52.546;13.428;2023-10-09T12:28:48;14.00;99.90
3944;DHT22;1986;52.546;13.428;2023-10-09T12:31:18;14.20;99.90
3944;DHT22;1986;52.546;13.428;2023-10-09T12:33:49;14.40;99.90
3944;DHT22;1986;52.546;13.428;2023-10-09T12:36:17;14.40;99.90
3944;DHT22;1986;52.546;13.428;2023-10-09T12:38:46;14.40;99.90
3944;DHT22;1986;52.546;13.428;2023-10-09T12:41:16;14.50;99.90
3944;DHT22;1986;52.546;13.428;2023-10-09T12:43:57;14.40;99.90
3944;DHT22;1986;52.546;13.428;2023-10-09T12:46:24;14.10;99.90
3944;DHT22;1986;52.546;13.428;2023-10-09T12:48:53;14.00;99.90
3944;DHT22;1986;52.546;13.428;2023-10-09T12:51:22;13.90;99.90
3944;DHT22;1986;52.546;13.428;2023-10-09T12:53:55;13.90;99.90
3944;DHT22;1986;52.546;13.428;2023-10-09T12:56:23;13.90;99.90
3944;DHT22;1986;52.546;13.428;2023-10-09T12:58:59;14.00;99.90
3944;DHT22;1986;52.546;13.428;2023-10-09T13:01:26;13.90;99.90
3944;DHT22;1986;52.546;13.428;2023-10-09T13:03:58;13.80;99.90
3944;DHT22;1986;52.546;13.428;2023-10-09T13:06:26;13.60;99.90
3944;DHT22;1986;52.546;13.428;2023-10-09T13:08:54;13.50;99.90
3944;DHT22;1986;52.546;13.428;2023-10-09T13:11:28;13.60;99.90
3944;DHT22;1986;52.546;13.428;2023-10-09T13:13:56;13.50;99.90
3944;DHT22;1986;52.546;13.428;2023-10-09T13:16:40;13.50;99.90
3944;DHT22;1986;52.546;13.428;2023-10-09T13:19:07;13.50;99.90
3944;DHT22;1986;52.546;13.428;2023-10-09T13:21:36;13.60;99.90
3944;DHT22;1986;52.546;13.428;2023-10-09T13:24:06;13.70;99.90
3944;DHT22;1986;52.546;13.428;2023-10-09T13:26:39;13.90;99.90
3944;DHT22;1986;52.546;13.428;2023-10-09T13:29:08;14.00;99.90
3944;DHT22;1986;52.546;13.428;2023-10-09T13:31:40;14.10;99.90
3944;DHT22;1986;52.546;13.428;2023-10-09T13:34:12;14.20;99.90
3944;DHT22;1986;52.546;13.428;2023-10-09T13:36:41;14.00;99.90
3944;DHT22;1986;52.546;13.428;2023-10-09T13:39:15;13.90;99.90
3944;DHT22;1986;52.546;13.428;2023-10-09T13:41:53;13.90;99.90
3944;DHT22;1986;52.546;13.428;2023-10-09T13:44:25;13.90;99.90
3944;DHT22;1986;52.546;13.428;2023-10-09T13:46:59;13.90;99.90
3944;DHT22;1986;52.546;13.428;2023-10-09T13:49:27;13.90;99.90
3944;DHT22;1986;52.546;13.428;2023-10-09T13:51:57;14.10;99.90
3944;DHT22;1986;52.546;13.428;2023-10-09T13:54:26;14.20;99.90
3944;DHT22;1986;52.546;13.428;2023-10-09T13:57:05;14.30;99.90
3944;DHT22;1986;52.546;13.428;2023-10-09T13:59:35;14.20;99.90
3944;DHT22;1986;52.546;13.428;2023-10-09T14:02:10;14.20;99.90
3944;DHT22;1986;52.546;13.428;2023-10-09T14:04:42;14.20;99.90
3944;DHT22;1986;52.546;13.428;2023-10-09T14:07:10;14.10;99.90
3944;DHT22;1986;52.546;13.428;2023-10-09T14:09:45;13.90;99.90
3944;DHT22;1986;52.546;13.428;2023-10-09T14:12:27;13.90;99.90
3944;DHT22;1986;52.546;13.428;2023-10-09T14:14:55;14.00;99.90
3944;DHT22;1986;52.546;13.428;2023-10-09T14:17:24;13.70;99.90
3944;DHT22;1986;52.546;13.428;2023-10-09T14:19:51;13.60;99.90
3944;DHT22;1986;52.546;13.428;2023-10-09T14:22:23;13.60;99.90
3944;DHT22;1986;52.546;13.428;2023-10-09T14:24:54;13.60;99.90
3944;DHT22;1986;52.546;13.428;2023-10-09T14:27:23;13.70;99.90
3944;DHT22;1986;52.546;13.428;2023-10-09T14:29:52;13.60;99.90
3944;DHT22;1986;52.546;13.428;2023-10-09T14:32:24;13.50;99.90
3944;DHT22;1986;52.546;13.428;2023-10-09T14:35:04;13.60;99.90
3944;DHT22;1986;52.546;13.428;2023-10-09T14:37:41;13.50;99.90
3944;DHT22;1986;52.546;13.428;2023-10-09T14:40:09;13.50;99.90
3944;DHT22;1986;52.546;13.428;2023-10-09T14:42:40;13.40;99.90
3944;DHT22;1986;52.546;13.428;2023-10-09T14:45:10;13.50;99.90
3944;DHT22;1986;52.546;13.428;2023-10-09T14:47:42;13.50;99.90
3944;DHT22;1986;52.546;13.428;2023-10-09T14:50:19;13.50;99.90
3944;DHT22;1986;52.546;13.428;2023-10-09T14:52:51;13.50;99.90
3944;DHT22;1986;52.546;13.428;2023-10-09T14:55:18;13.50;99.90
3944;DHT22;1986;52.546;13.428;2023-10-09T14:57:52;13.40;99.90
3944;DHT22;1986;52.546;13.428;2023-10-09T15:00:21;13.20;99.90
3944;DHT22;1986;52.546;13.428;2023-10-09T15:02:53;13.30;99.90
3944;DHT22;1986;52.546;13.428;2023-10-09T15:05:20;13.30;99.90
3944;DHT22;1986;52.546;13.428;2023-10-09T15:07:48;13.20;99.90
3944;DHT22;1986;52.546;13.428;2023-10-09T15:10:16;13.10;99.90
3944;DHT22;1986;52.546;13.428;2023-10-09T15:12:45;13.20;99.90
3944;DHT22;1986;52.546;13.428;2023-10-09T15:15:15;13.10;99.90
3944;DHT22;1986;52.546;13.428;2023-10-09T15:17:52;13.20;99.90
3944;DHT22;1986;52.546;13.428;2023-10-09T15:20:21;13.30;99.90
3944;DHT22;1986;52.546;13.428;2023-10-09T15:22:48;13.20;99.90
3944;DHT22;1986;52.546;13.428;2023-10-09T15:25:16;13.20;99.90
3944;DHT22;1986;52.546;13.428;2023-10-09T15:27:45;13.20;99.90
3944;DHT22;1986;52.546;13.428;2023-10-09T15:30:14;13.10;99.90
3944;DHT22;1986;52.546;13.428;2023-10-09T15:32:42;13.20;99.90
3944;DHT22;1986;52.546;13.428;2023-10-09T15:35:11;13.10;99.90
3944;DHT22;1986;52.546;13.428;2023-10-09T15:37:39;13.10;99.90
3944;DHT22;1986;52.546;13.428;2023-10-09T15:40:11;13.20;99.90
3944;DHT22;1986;52.546;13.428;2023-10-09T15:42:42;13.30;99.90
3944;DHT22;1986;52.546;13.428;2023-10-09T15:45:15;13.20;99.90
3944;DHT22;1986;52.546;13.428;2023-10-09T15:47:42;13.20;99.90
3944;DHT22;1986;52.546;13.428;2023-10-09T15:50:14;13.20;99.90
3944;DHT22;1986;52.546;13.428;2023-10-09T15:52:45;13.10;99.90
3944;DHT22;1986;52.546;13.428;2023-10-09T15:55:18;13.10;99.90
3944;DHT22;1986;52.546;13.428;2023-10-09T15:57:50;13.10;99.90
3944;DHT22;1986;52.546;13.428;2023-10-09T16:00:21;13.10;99.90
3944;DHT22;1986;52.546;13.428;2023-10-09T16:02:54;13.10;99.90
3944;DHT22;1986;52.546;13.428;2023-10-09T16:05:23;13.00;99.90
3944;DHT22;1986;52.546;13.428;2023-10-09T16:07:51;13.00;99.90
3944;DHT22;1986;52.546;13.428;2023-10-09T16:10:21;13.00;99.90
3944;DHT22;1986;52.546;13.428;2023-10-09T16:12:48;13.00;99.90
3944;DHT22;1986;52.546;13.428;2023-10-09T16:15:17;12.90;99.90
3944;DHT22;1986;52.546;13.428;2023-10-09T16:17:46;12.90;99.90
3944;DHT22;1986;52.546;13.428;2023-10-09T16:20:16;13.00;99.90
3944;DHT22;1986;52.546;13.428;2023-10-09T16:22:48;13.00;99.90
3944;DHT22;1986;52.546;13.428;2023-10-09T16:25:16;13.00;99.90
3944;DHT22;1986;52.546;13.428;2023-10-09T16:27:49;13.10;99.90
3944;DHT22;1986;52.546;13.428;2023-10-09T16:30:17;13.00;99.90
3944;DHT22;1986;52.546;13.428;2023-10-09T16:32:48;13.00;99.90
3944;DHT22;1986;52.546;13.428;2023-10-09T16:35:18;13.00;99.90
3944;DHT22;1986;52.546;13.428;2023-10-09T16:37:49;12.90;99.90